sensor_id;sensor_type;location;lat;lon;timestamp;temperature;humidity
851;DHT22;412;51.400;7.480;2023-03-19T00:01:12;13.00;99.90
851;DHT22;412;51.400;7.480;2023-03-19T00:03:38;13.00;99.90
851;DHT22;412;51.400;7.480;2023-03-19T00:06:03;13.00;99.90
851;DHT22;412;51.400;7.480;2023-03-19T00:08:29;13.00;99.90
851;DHT22;412;51.400;7.480;2023-03-19T00:10:55;13.00;99.90
851;DHT22;412;51.400;7.480;2023-03-19T00:13:21;13.00;99.90
851;DHT22;412;51.400;7.480;2023-03-19T00:15:46;13.00;99.90
851;DHT22;412;51.400;7.480;2023-03-19T00:18:12;13.00;99.90
851;DHT22;412;51.400;7.480;2023-03-19T00:20:38;12.90;99.90
851;DHT22;412;51.400;7.480;2023-03-19T00:23:04;12.90;99.90
851;DHT22;412;51.400;7.480;2023-03-19T00:25:31;13.00;99.90
851;DHT22;412;51.400;7.480;2023-03-19T00:27:58;13.00;99.90
851;DHT22;412;51.400;7.480;2023-03-19T00:30:23;13.00;99.90
851;DHT22;412;51.400;7.480;2023-03-19T00:32:49;13.00;99.90
851;DHT22;412;51.400;7.480;2023-03-19T00:35:15;13.00;99.90
851;DHT22;412;51.400;7.480;2023-03-19T00:37:41;13.00;99.90
851;DHT22;412;51.400;7.480;2023-03-19T00:40:08;13.00;99.90
851;DHT22;412;51.400;7.480;2023-03-19T00:42:34;13.00;99.90
851;DHT22;412;51.400;7.480;2023-03-19T00:45:01;13.00;99.90
851;DHT22;412;51.400;7.480;2023-03-19T00:47:26;13.00;99.90
851;DHT22;412;51.400;7.480;2023-03-19T00:49:52;12.90;99.90
851;DHT22;412;51.400;7.480;2023-03-19T00:52:18;12.90;99.90
851;DHT22;412;51.400;7.480;2023-03-19T00:54:43;12.90;99.90
851;DHT22;412;51.400;7.480;2023-03-19T00:57:09;12.90;99.90
851;DHT22;412;51.400;7.480;2023-03-19T00:59:35;12.90;99.90
851;DHT22;412;51.400;7.480;2023-03-19T01:02:01;13.00;99.90
851;DHT22;412;51.400;7.480;2023-03-19T01:04:26;13.00;99.90
851;DHT22;412;51.400;7.480;2023-03-19T01:06:52;13.00;99.90
851;DHT22;412;51.400;7.480;2023-03-19T01:09:18;13.00;99.90
851;DHT22;412;51.400;7.480;2023-03-19T01:11:44;13.00;99.90
851;DHT22;412;51.400;7.480;2023-03-19T01:14:10;13.00;99.90
851;DHT22;412;51.400;7.480;2023-03-19T01:16:36;13.00;99.90
851;DHT22;412;51.400;7.480;2023-03-19T01:19:02;13.00;99.90
851;DHT22;412;51.400;7.480;2023-03-19T01:21:28;13.00;99.90
851;DHT22;412;51.400;7.480;2023-03-19T01:23:57;13.10;99.90
851;DHT22;412;51.400;7.480;2023-03-19T01:26:23;13.00;99.90
851;DHT22;412;51.400;7.480;2023-03-19T01:28:49;13.00;99.90
851;DHT22;412;51.400;7.480;2023-03-19T01:31:14;13.00;99.90
851;DHT22;412;51.400;7.480;2023-03-19T01:33:41;13.00;99.90
851;DHT22;412;51.400;7.480;2023-03-19T01:36:07;13.00;99.90
851;DHT22;412;51.400;7.480;2023-03-19T01:38:34;13.00;99.90
851;DHT22;412;51.400;7.480;2023-03-19T01:41:00;13.00;99.90
851;DHT22;412;51.400;7.480;2023-03-19T01:43:30;13.00;99.90
851;DHT22;412;51.400;7.480;2023-03-19T01:46:04;12.90;99.90
851;DHT22;412;51.400;7.480;2023-03-19T01:48:43;12.90;99.90
851;DHT22;412;51.400;7.480;2023-03-19T01:51:13;12.90;99.90
851;DHT22;412;51.400;7.480;2023-03-19T01:53:46;12.90;99.90
851;DHT22;412;51.400;7.480;2023-03-19T01:56:16;12.80;99.90
851;DHT22;412;51.400;7.480;2023-03-19T01:58:45;12.80;99.90
851;DHT22;412;51.400;7.480;2023-03-19T02:01:13;12.80;99.90
851;DHT22;412;51.400;7.480;2023-03-19T02:03:39;12.70;99.90
851;DHT22;412;51.400;7.480;2023-03-19T02:06:06;12.70;99.90
851;DHT22;412;51.400;7.480;2023-03-19T02:08:34;12.70;99.90
851;DHT22;412;51.400;7.480;2023-03-19T02:11:01;12.60;99.90
851;DHT22;412;51.400;7.480;2023-03-19T02:13:27;12.60;99.90
851;DHT22;412;51.400;7.480;2023-03-19T02:15:54;12.70;99.90
851;DHT22;412;51.400;7.480;2023-03-19T02:18:20;12.70;99.90
851;DHT22;412;51.400;7.480;2023-03-19T02:26:19;12.70;99.90
851;DHT22;412;51.400;7.480;2023-03-19T02:28:47;12.70;99.90
851;DHT22;412;51.400;7.480;2023-03-19T02:31:14;12.60;99.90
851;DHT22;412;51.400;7.480;2023-03-19T02:33:41;12.60;99.90
851;DHT22;412;51.400;7.480;2023-03-19T02:36:14;12.60;99.90
851;DHT22;412;51.400;7.480;2023-03-19T02:38:43;12.60;99.90
851;DHT22;412;51.400;7.480;2023-03-19T02:41:11;12.50;99.90
851;DHT22;412;51.400;7.480;2023-03-19T02:43:40;12.50;99.90
851;DHT22;412;51.400;7.480;2023-03-19T02:46:09;12.50;99.90
851;DHT22;412;51.400;7.480;2023-03-19T02:48:36;12.50;99.90
851;DHT22;412;51.400;7.480;2023-03-19T02:51:03;12.40;99.90
851;DHT22;412;51.400;7.480;2023-03-19T02:53:28;12.40;99.90
851;DHT22;412;51.400;7.480;2023-03-19T02:55:54;12.40;99.90
851;DHT22;412;51.400;7.480;2023-03-19T02:58:20;12.40;99.90
851;DHT22;412;51.400;7.480;2023-03-19T03:00:46;12.40;99.90
851;DHT22;412;51.400;7.480;2023-03-19T03:03:12;12.40;99.90
851;DHT22;412;51.400;7.480;2023-03-19T03:05:38;12.40;99.90
851;DHT22;412;51.400;7.480;2023-03-19T03:08:04;12.40;99.90
851;DHT22;412;51.400;7.480;2023-03-19T03:10:31;12.30;99.90
851;DHT22;412;51.400;7.480;2023-03-19T03:12:58;12.30;99.90
851;DHT22;412;51.400;7.480;2023-03-19T03:15:24;12.30;99.90
851;DHT22;412;51.400;7.480;2023-03-19T03:17:50;12.30;99.90
851;DHT22;412;51.400;7.480;2023-03-19T03:20:16;12.30;99.90
851;DHT22;412;51.400;7.480;2023-03-19T03:22:44;12.30;99.90
851;DHT22;412;51.400;7.480;2023-03-19T03:25:11;12.20;99.90
851;DHT22;412;51.400;7.480;2023-03-19T03:27:37;12.20;99.90
851;DHT22;412;51.400;7.480;2023-03-19T03:30:04;12.10;99.90
851;DHT22;412;51.400;7.480;2023-03-19T03:32:30;12.20;99.90
851;DHT22;412;51.400;7.480;2023-03-19T03:34:56;12.20;99.90
851;DHT22;412;51.400;7.480;2023-03-19T03:37:22;12.20;99.90
851;DHT22;412;51.400;7.480;2023-03-19T03:39:48;12.10;99.90
851;DHT22;412;51.400;7.480;2023-03-19T03:42:13;12.20;99.90
851;DHT22;412;51.400;7.480;2023-03-19T03:44:39;12.20;99.90
851;DHT22;412;51.400;7.480;2023-03-19T03:47:06;12.30;99.90
851;DHT22;412;51.400;7.480;2023-03-19T03:49:31;12.30;99.90
851;DHT22;412;51.400;7.480;2023-03-19T03:51:57;12.30;99.90
851;DHT22;412;51.400;7.480;2023-03-19T03:54:23;12.30;99.90
851;DHT22;412;51.400;7.480;2023-03-19T03:56:48;12.30;99.90
851;DHT22;412;51.400;7.480;2023-03-19T03:59:15;12.40;99.90
851;DHT22;412;51.400;7.480;2023-03-19T04:01:41;12.30;99.90
851;DHT22;412;51.400;7.480;2023-03-19T04:04:07;12.50;99.90
851;DHT22;412;51.400;7.480;2023-03-19T04:06:32;12.40;99.90
851;DHT22;412;51.400;7.480;2023-03-19T04:08:59;12.50;99.90
851;DHT22;412;51.400;7.480;2023-03-19T04:11:25;12.40;99.90
851;DHT22;412;51.400;7.480;2023-03-19T04:13:54;12.40;99.90
851;DHT22;412;51.400;7.480;2023-03-19T04:16:20;12.50;99.90
851;DHT22;412;51.400;7.480;2023-03-19T04:18:45;12.50;99.90
851;DHT22;412;51.400;7.480;2023-03-19T04:21:11;12.50;99.90
851;DHT22;412;51.400;7.480;2023-03-19T04:23:37;12.60;99.90
851;DHT22;412;51.400;7.480;2023-03-19T04:26:04;12.60;99.90
851;DHT22;412;51.400;7.480;2023-03-19T04:28:31;12.60;99.90
851;DHT22;412;51.400;7.480;2023-03-19T04:31:03;12.60;99.90
851;DHT22;412;51.400;7.480;2023-03-19T04:33:30;12.60;99.90
851;DHT22;412;51.400;7.480;2023-03-19T04:35:56;12.60;99.90
851;DHT22;412;51.400;7.480;2023-03-19T04:38:23;12.70;99.90
851;DHT22;412;51.400;7.480;2023-03-19T04:40:53;12.60;99.90
851;DHT22;412;51.400;7.480;2023-03-19T04:43:21;12.60;99.90
851;DHT22;412;51.400;7.480;2023-03-19T04:45:46;12.60;99.90
851;DHT22;412;51.400;7.480;2023-03-19T04:48:12;12.70;99.90
851;DHT22;412;51.400;7.480;2023-03-19T04:50:38;12.60;99.90
851;DHT22;412;51.400;7.480;2023-03-19T04:53:04;12.60;99.90
851;DHT22;412;51.400;7.480;2023-03-19T04:55:30;12.60;99.90
851;DHT22;412;51.400;7.480;2023-03-19T04:57:56;12.70;99.90
851;DHT22;412;51.400;7.480;2023-03-19T05:00:22;12.60;99.90
851;DHT22;412;51.400;7.480;2023-03-19T05:02:48;12.60;99.90
851;DHT22;412;51.400;7.480;2023-03-19T05:05:14;12.60;99.90
851;DHT22;412;51.400;7.480;2023-03-19T05:07:40;12.60;99.90
851;DHT22;412;51.400;7.480;2023-03-19T05:10:07;12.60;99.90
851;DHT22;412;51.400;7.480;2023-03-19T05:12:33;12.60;99.90
851;DHT22;412;51.400;7.480;2023-03-19T05:14:59;12.60;99.90
851;DHT22;412;51.400;7.480;2023-03-19T05:17:25;12.60;99.90
851;DHT22;412;51.400;7.480;2023-03-19T05:19:51;12.60;99.90
851;DHT22;412;51.400;7.480;2023-03-19T05:22:18;12.70;99.90
851;DHT22;412;51.400;7.480;2023-03-19T05:24:44;12.70;99.90
851;DHT22;412;51.400;7.480;2023-03-19T05:27:11;12.80;99.90
851;DHT22;412;51.400;7.480;2023-03-19T05:29:37;12.80;99.90
851;DHT22;412;51.400;7.480;2023-03-19T05:32:03;12.80;99.90
851;DHT22;412;51.400;7.480;2023-03-19T05:34:30;12.90;99.90
851;DHT22;412;51.400;7.480;2023-03-19T05:36:56;12.90;99.90
851;DHT22;412;51.400;7.480;2023-03-19T05:39:22;13.00;99.90
851;DHT22;412;51.400;7.480;2023-03-19T05:41:47;13.10;99.90
851;DHT22;412;51.400;7.480;2023-03-19T05:44:13;13.10;99.90
851;DHT22;412;51.400;7.480;2023-03-19T05:46:39;13.10;99.90
851;DHT22;412;51.400;7.480;2023-03-19T05:49:06;13.20;99.90
851;DHT22;412;51.400;7.480;2023-03-19T05:51:31;13.20;99.90
851;DHT22;412;51.400;7.480;2023-03-19T05:53:57;13.10;99.90
851;DHT22;412;51.400;7.480;2023-03-19T05:56:23;13.20;99.90
851;DHT22;412;51.400;7.480;2023-03-19T05:58:49;13.10;99.90
851;DHT22;412;51.400;7.480;2023-03-19T06:01:14;13.10;99.90
851;DHT22;412;51.400;7.480;2023-03-19T06:03:40;13.10;99.90
851;DHT22;412;51.400;7.480;2023-03-19T06:06:06;13.10;99.90
851;DHT22;412;51.400;7.480;2023-03-19T06:08:32;13.20;99.90
851;DHT22;412;51.400;7.480;2023-03-19T06:10:58;13.20;99.90
851;DHT22;412;51.400;7.480;2023-03-19T06:13:24;13.30;99.90
851;DHT22;412;51.400;7.480;2023-03-19T06:15:50;13.30;99.90
851;DHT22;412;51.400;7.480;2023-03-19T06:18:16;13.40;99.90
851;DHT22;412;51.400;7.480;2023-03-19T06:20:42;13.40;99.90
851;DHT22;412;51.400;7.480;2023-03-19T06:23:08;13.50;99.90
851;DHT22;412;51.400;7.480;2023-03-19T06:25:34;13.60;99.90
851;DHT22;412;51.400;7.480;2023-03-19T06:28:00;13.50;99.90
851;DHT22;412;51.400;7.480;2023-03-19T06:30:26;13.60;99.90
851;DHT22;412;51.400;7.480;2023-03-19T06:32:51;13.70;99.90
851;DHT22;412;51.400;7.480;2023-03-19T06:35:17;13.70;99.90
851;DHT22;412;51.400;7.480;2023-03-19T06:37:43;13.70;99.90
851;DHT22;412;51.400;7.480;2023-03-19T06:40:09;13.80;99.90
851;DHT22;412;51.400;7.480;2023-03-19T06:42:35;13.80;99.90
851;DHT22;412;51.400;7.480;2023-03-19T06:45:02;13.90;99.90
851;DHT22;412;51.400;7.480;2023-03-19T06:47:28;13.90;99.90
851;DHT22;412;51.400;7.480;2023-03-19T06:49:53;13.90;99.90
851;DHT22;412;51.400;7.480;2023-03-19T06:52:19;13.80;99.90
851;DHT22;412;51.400;7.480;2023-03-19T06:54:45;13.80;99.90
851;DHT22;412;51.400;7.480;2023-03-19T06:57:11;13.80;99.90
851;DHT22;412;51.400;7.480;2023-03-19T06:59:36;13.80;99.90
851;DHT22;412;51.400;7.480;2023-03-19T07:02:02;13.70;99.90
851;DHT22;412;51.400;7.480;2023-03-19T07:04:28;13.80;99.90
851;DHT22;412;51.400;7.480;2023-03-19T07:06:54;13.90;99.90
851;DHT22;412;51.400;7.480;2023-03-19T07:09:22;13.90;99.90
851;DHT22;412;51.400;7.480;2023-03-19T07:11:49;13.90;99.90
851;DHT22;412;51.400;7.480;2023-03-19T07:14:15;14.00;99.90
851;DHT22;412;51.400;7.480;2023-03-19T07:16:40;13.90;99.90
851;DHT22;412;51.400;7.480;2023-03-19T07:19:06;13.90;99.90
851;DHT22;412;51.400;7.480;2023-03-19T07:21:32;14.00;99.90
851;DHT22;412;51.400;7.480;2023-03-19T07:23:57;13.90;99.90
851;DHT22;412;51.400;7.480;2023-03-19T07:26:23;14.00;99.90
851;DHT22;412;51.400;7.480;2023-03-19T07:28:49;14.10;99.90
851;DHT22;412;51.400;7.480;2023-03-19T07:31:15;14.00;99.90
851;DHT22;412;51.400;7.480;2023-03-19T07:33:41;14.00;99.90
851;DHT22;412;51.400;7.480;2023-03-19T07:36:07;14.10;99.90
851;DHT22;412;51.400;7.480;2023-03-19T07:38:33;14.10;99.90
851;DHT22;412;51.400;7.480;2023-03-19T07:40:58;14.00;99.90
851;DHT22;412;51.400;7.480;2023-03-19T07:43:25;14.10;99.90
851;DHT22;412;51.400;7.480;2023-03-19T07:45:50;14.10;99.90
851;DHT22;412;51.400;7.480;2023-03-19T07:48:16;14.20;99.90
851;DHT22;412;51.400;7.480;2023-03-19T07:50:42;14.10;99.90
851;DHT22;412;51.400;7.480;2023-03-19T07:53:07;14.10;99.90
851;DHT22;412;51.400;7.480;2023-03-19T07:55:33;14.20;99.90
851;DHT22;412;51.400;7.480;2023-03-19T07:57:59;14.30;99.90
851;DHT22;412;51.400;7.480;2023-03-19T08:00:25;14.30;99.90
851;DHT22;412;51.400;7.480;2023-03-19T08:02:50;14.30;99.90
851;DHT22;412;51.400;7.480;2023-03-19T08:05:16;14.30;99.90
851;DHT22;412;51.400;7.480;2023-03-19T08:07:42;14.30;99.90
851;DHT22;412;51.400;7.480;2023-03-19T08:10:09;14.40;99.90
851;DHT22;412;51.400;7.480;2023-03-19T08:12:35;14.40;99.90
851;DHT22;412;51.400;7.480;2023-03-19T08:15:08;14.40;99.90
851;DHT22;412;51.400;7.480;2023-03-19T08:17:34;14.40;99.90
851;DHT22;412;51.400;7.480;2023-03-19T08:20:14;14.40;99.90
851;DHT22;412;51.400;7.480;2023-03-19T08:22:41;14.50;99.90
851;DHT22;412;51.400;7.480;2023-03-19T08:25:08;14.40;99.90
851;DHT22;412;51.400;7.480;2023-03-19T08:27:35;14.50;99.90
851;DHT22;412;51.400;7.480;2023-03-19T08:30:03;14.40;99.90
851;DHT22;412;51.400;7.480;2023-03-19T08:32:29;14.30;99.90
851;DHT22;412;51.400;7.480;2023-03-19T08:34:55;14.40;99.90
851;DHT22;412;51.400;7.480;2023-03-19T08:37:21;14.20;99.90
851;DHT22;412;51.400;7.480;2023-03-19T08:39:49;14.20;99.90
851;DHT22;412;51.400;7.480;2023-03-19T08:42:15;14.30;99.90
851;DHT22;412;51.400;7.480;2023-03-19T08:44:41;14.30;99.90
851;DHT22;412;51.400;7.480;2023-03-19T08:47:06;14.30;99.90
851;DHT22;412;51.400;7.480;2023-03-19T08:49:32;14.30;99.90
851;DHT22;412;51.400;7.480;2023-03-19T08:51:58;14.30;99.90
851;DHT22;412;51.400;7.480;2023-03-19T08:54:23;14.20;99.90
851;DHT22;412;51.400;7.480;2023-03-19T08:56:49;14.20;99.90
851;DHT22;412;51.400;7.480;2023-03-19T08:59:15;14.30;99.90
851;DHT22;412;51.400;7.480;2023-03-19T09:01:41;14.40;99.90
851;DHT22;412;51.400;7.480;2023-03-19T09:04:08;14.40;99.90
851;DHT22;412;51.400;7.480;2023-03-19T09:06:34;14.30;99.90
851;DHT22;412;51.400;7.480;2023-03-19T09:09:00;14.40;99.90
851;DHT22;412;51.400;7.480;2023-03-19T09:11:26;14.50;99.90
851;DHT22;412;51.400;7.480;2023-03-19T09:13:51;14.20;99.90
851;DHT22;412;51.400;7.480;2023-03-19T09:16:17;14.20;99.90
851;DHT22;412;51.400;7.480;2023-03-19T09:18:43;14.20;99.90
851;DHT22;412;51.400;7.480;2023-03-19T09:21:09;14.00;99.90
851;DHT22;412;51.400;7.480;2023-03-19T09:23:34;14.00;99.90
851;DHT22;412;51.400;7.480;2023-03-19T09:26:00;14.00;99.90
851;DHT22;412;51.400;7.480;2023-03-19T09:28:26;14.10;99.90
851;DHT22;412;51.400;7.480;2023-03-19T09:30:52;14.20;99.90
851;DHT22;412;51.400;7.480;2023-03-19T09:33:19;14.30;99.90
851;DHT22;412;51.400;7.480;2023-03-19T09:35:49;14.30;99.90
851;DHT22;412;51.400;7.480;2023-03-19T09:38:17;14.40;99.90
851;DHT22;412;51.400;7.480;2023-03-19T09:40:46;14.50;99.90
851;DHT22;412;51.400;7.480;2023-03-19T09:46:17;14.40;99.90
851;DHT22;412;51.400;7.480;2023-03-19T09:48:54;14.30;99.90
851;DHT22;412;51.400;7.480;2023-03-19T09:54:47;14.50;99.90
851;DHT22;412;51.400;7.480;2023-03-19T09:57:14;14.40;99.90
851;DHT22;412;51.400;7.480;2023-03-19T09:59:42;14.50;99.90
851;DHT22;412;51.400;7.480;2023-03-19T10:02:37;14.70;99.90
851;DHT22;412;51.400;7.480;2023-03-19T10:05:26;14.80;99.90
851;DHT22;412;51.400;7.480;2023-03-19T10:11:01;15.20;99.90
851;DHT22;412;51.400;7.480;2023-03-19T10:16:37;15.60;99.90
851;DHT22;412;51.400;7.480;2023-03-19T10:19:04;15.70;99.90
851;DHT22;412;51.400;7.480;2023-03-19T10:21:47;15.80;99.90
851;DHT22;412;51.400;7.480;2023-03-19T10:26:59;16.00;99.90
851;DHT22;412;51.400;7.480;2023-03-19T10:29:26;16.10;99.90
851;DHT22;412;51.400;7.480;2023-03-19T10:34:41;16.30;99.90
851;DHT22;412;51.400;7.480;2023-03-19T10:37:22;16.50;99.90
851;DHT22;412;51.400;7.480;2023-03-19T10:39:51;16.60;99.90
851;DHT22;412;51.400;7.480;2023-03-19T10:47:39;17.20;99.90
851;DHT22;412;51.400;7.480;2023-03-19T10:50:06;17.40;99.90
851;DHT22;412;51.400;7.480;2023-03-19T10:52:36;17.60;99.90
851;DHT22;412;51.400;7.480;2023-03-19T10:55:16;17.90;99.90
851;DHT22;412;51.400;7.480;2023-03-19T10:57:44;18.10;99.80
851;DHT22;412;51.400;7.480;2023-03-19T11:00:18;18.20;99.70
851;DHT22;412;51.400;7.480;2023-03-19T11:02:49;18.40;99.90
851;DHT22;412;51.400;7.480;2023-03-19T11:05:28;18.60;97.90
851;DHT22;412;51.400;7.480;2023-03-19T11:10:24;19.00;95.50
851;DHT22;412;51.400;7.480;2023-03-19T11:13:02;19.00;93.90
851;DHT22;412;51.400;7.480;2023-03-19T11:15:34;19.00;94.80
851;DHT22;412;51.400;7.480;2023-03-19T11:18:21;18.80;94.00
851;DHT22;412;51.400;7.480;2023-03-19T11:20:58;18.60;93.20
851;DHT22;412;51.400;7.480;2023-03-19T11:23:28;18.50;93.60
851;DHT22;412;51.400;7.480;2023-03-19T11:25:59;18.40;94.60
851;DHT22;412;51.400;7.480;2023-03-19T11:28:26;18.50;94.30
851;DHT22;412;51.400;7.480;2023-03-19T11:36:30;18.00;94.90
851;DHT22;412;51.400;7.480;2023-03-19T11:45:03;18.10;95.80
851;DHT22;412;51.400;7.480;2023-03-19T11:50:21;18.50;95.70
851;DHT22;412;51.400;7.480;2023-03-19T11:53:17;18.70;94.30
851;DHT22;412;51.400;7.480;2023-03-19T12:02:07;19.00;92.40
851;DHT22;412;51.400;7.480;2023-03-19T12:10:02;19.10;91.40
851;DHT22;412;51.400;7.480;2023-03-19T12:12:42;19.10;91.40
851;DHT22;412;51.400;7.480;2023-03-19T12:15:33;19.00;91.40
851;DHT22;412;51.400;7.480;2023-03-19T12:20:55;18.60;91.90
851;DHT22;412;51.400;7.480;2023-03-19T12:26:08;18.50;92.40
851;DHT22;412;51.400;7.480;2023-03-19T12:28:57;18.50;93.20
851;DHT22;412;51.400;7.480;2023-03-19T12:34:51;18.20;93.40
851;DHT22;412;51.400;7.480;2023-03-19T12:37:31;18.10;92.80
851;DHT22;412;51.400;7.480;2023-03-19T12:42:51;17.90;93.00
851;DHT22;412;51.400;7.480;2023-03-19T12:45:29;17.80;93.90
851;DHT22;412;51.400;7.480;2023-03-19T12:48:11;17.90;94.70
851;DHT22;412;51.400;7.480;2023-03-19T12:50:43;17.70;94.60
851;DHT22;412;51.400;7.480;2023-03-19T12:53:39;17.70;94.20
851;DHT22;412;51.400;7.480;2023-03-19T12:56:24;17.80;95.00
851;DHT22;412;51.400;7.480;2023-03-19T12:59:03;17.90;95.50
851;DHT22;412;51.400;7.480;2023-03-19T13:01:36;18.00;94.70
851;DHT22;412;51.400;7.480;2023-03-19T13:04:10;18.00;95.30
851;DHT22;412;51.400;7.480;2023-03-19T13:07:00;18.00;95.70
851;DHT22;412;51.400;7.480;2023-03-19T13:09:33;18.10;96.20
851;DHT22;412;51.400;7.480;2023-03-19T13:12:23;18.00;96.10
851;DHT22;412;51.400;7.480;2023-03-19T13:15:27;18.00;96.20
851;DHT22;412;51.400;7.480;2023-03-19T13:23:44;17.90;97.60
851;DHT22;412;51.400;7.480;2023-03-19T13:26:12;17.90;98.30
851;DHT22;412;51.400;7.480;2023-03-19T13:31:23;18.10;98.80
851;DHT22;412;51.400;7.480;2023-03-19T13:33:59;18.10;98.00
851;DHT22;412;51.400;7.480;2023-03-19T13:36:30;18.00;98.00
851;DHT22;412;51.400;7.480;2023-03-19T13:38:58;18.00;97.70
851;DHT22;412;51.400;7.480;2023-03-19T13:56:07;17.20;99.90
851;DHT22;412;51.400;7.480;2023-03-19T14:01:35;17.00;99.90
851;DHT22;412;51.400;7.480;2023-03-19T14:04:03;17.00;99.90
851;DHT22;412;51.400;7.480;2023-03-19T14:06:42;16.90;99.90
851;DHT22;412;51.400;7.480;2023-03-19T14:09:32;16.90;99.90
851;DHT22;412;51.400;7.480;2023-03-19T14:19:52;16.60;99.90
851;DHT22;412;51.400;7.480;2023-03-19T14:26:09;16.40;99.90
851;DHT22;412;51.400;7.480;2023-03-19T14:29:14;16.40;99.90
851;DHT22;412;51.400;7.480;2023-03-19T14:31:52;16.40;99.90
851;DHT22;412;51.400;7.480;2023-03-19T14:39:38;16.20;99.90
851;DHT22;412;51.400;7.480;2023-03-19T14:42:16;16.20;99.90
851;DHT22;412;51.400;7.480;2023-03-19T14:53:16;16.10;99.90
851;DHT22;412;51.400;7.480;2023-03-19T14:55:49;16.10;99.90
851;DHT22;412;51.400;7.480;2023-03-19T14:58:17;16.10;99.90
851;DHT22;412;51.400;7.480;2023-03-19T15:00:48;16.10;99.90
851;DHT22;412;51.400;7.480;2023-03-19T15:05:56;16.10;99.90
851;DHT22;412;51.400;7.480;2023-03-19T15:08:23;16.10;99.90
851;DHT22;412;51.400;7.480;2023-03-19T15:13:31;16.10;99.90
851;DHT22;412;51.400;7.480;2023-03-19T15:16:36;16.10;99.90
851;DHT22;412;51.400;7.480;2023-03-19T15:19:08;16.10;99.90
851;DHT22;412;51.400;7.480;2023-03-19T15:21:36;16.10;99.90
851;DHT22;412;51.400;7.480;2023-03-19T15:24:02;16.10;99.90
851;DHT22;412;51.400;7.480;2023-03-19T15:26:31;16.00;99.90
851;DHT22;412;51.400;7.480;2023-03-19T15:28:57;16.10;99.90
851;DHT22;412;51.400;7.480;2023-03-19T15:31:40;16.10;99.90
851;DHT22;412;51.400;7.480;2023-03-19T15:34:25;16.10;99.90
851;DHT22;412;51.400;7.480;2023-03-19T15:37:09;16.10;99.90
851;DHT22;412;51.400;7.480;2023-03-19T15:39:44;16.10;99.90
851;DHT22;412;51.400;7.480;2023-03-19T15:42:12;16.20;99.90
851;DHT22;412;51.400;7.480;2023-03-19T15:44:47;16.20;99.90
851;DHT22;412;51.400;7.480;2023-03-19T15:47:19;16.30;99.90
851;DHT22;412;51.400;7.480;2023-03-19T15:50:08;16.20;99.90
851;DHT22;412;51.400;7.480;2023-03-19T15:52:41;16.30;99.90
851;DHT22;412;51.400;7.480;2023-03-19T15:55:08;16.30;99.90
851;DHT22;412;51.400;7.480;2023-03-19T15:57:36;16.30;99.90
851;DHT22;412;51.400;7.480;2023-03-19T16:00:03;16.30;99.90
851;DHT22;412;51.400;7.480;2023-03-19T16:02:32;16.30;99.90
851;DHT22;412;51.400;7.480;2023-03-19T16:05:00;16.30;99.90
851;DHT22;412;51.400;7.480;2023-03-19T16:09:55;16.30;99.90
851;DHT22;412;51.400;7.480;2023-03-19T16:12:33;16.40;99.90
851;DHT22;412;51.400;7.480;2023-03-19T16:15:00;16.40;99.90
851;DHT22;412;51.400;7.480;2023-03-19T16:17:33;16.50;99.90
851;DHT22;412;51.400;7.480;2023-03-19T16:20:01;16.50;99.90
851;DHT22;412;51.400;7.480;2023-03-19T16:22:30;16.60;99.90
851;DHT22;412;51.400;7.480;2023-03-19T16:24:56;16.60;99.90
851;DHT22;412;51.400;7.480;2023-03-19T16:27:37;16.60;99.90
851;DHT22;412;51.400;7.480;2023-03-19T16:32:41;16.70;99.90
851;DHT22;412;51.400;7.480;2023-03-19T16:35:18;16.60;99.90
851;DHT22;412;51.400;7.480;2023-03-19T16:37:49;16.60;99.90
851;DHT22;412;51.400;7.480;2023-03-19T16:42:52;16.60;99.90
851;DHT22;412;51.400;7.480;2023-03-19T16:45:27;16.50;99.90
851;DHT22;412;51.400;7.480;2023-03-19T16:47:55;16.50;99.90
851;DHT22;412;51.400;7.480;2023-03-19T16:50:27;16.50;99.90
851;DHT22;412;51.400;7.480;2023-03-19T16:52:55;16.50;99.90
851;DHT22;412;51.400;7.480;2023-03-19T16:55:29;16.40;99.90
851;DHT22;412;51.400;7.480;2023-03-19T17:00:52;16.40;99.90
851;DHT22;412;51.400;7.480;2023-03-19T17:03:18;16.30;99.90
851;DHT22;412;51.400;7.480;2023-03-19T17:05:44;16.30;99.90
851;DHT22;412;51.400;7.480;2023-03-19T17:08:11;16.30;99.90
851;DHT22;412;51.400;7.480;2023-03-19T17:10:39;16.30;99.90
851;DHT22;412;51.400;7.480;2023-03-19T17:13:12;16.20;99.90
851;DHT22;412;51.400;7.480;2023-03-19T17:15:40;16.20;99.90
851;DHT22;412;51.400;7.480;2023-03-19T17:18:15;16.20;99.90
851;DHT22;412;51.400;7.480;2023-03-19T17:21:10;16.10;99.90
851;DHT22;412;51.400;7.480;2023-03-19T17:23:36;16.10;99.90
851;DHT22;412;51.400;7.480;2023-03-19T17:26:13;16.10;99.90
851;DHT22;412;51.400;7.480;2023-03-19T17:28:40;16.00;99.90
851;DHT22;412;51.400;7.480;2023-03-19T17:31:30;16.00;99.90
851;DHT22;412;51.400;7.480;2023-03-19T17:34:08;15.90;99.90
851;DHT22;412;51.400;7.480;2023-03-19T17:36:34;15.80;99.90
851;DHT22;412;51.400;7.480;2023-03-19T17:39:01;15.80;99.90
851;DHT22;412;51.400;7.480;2023-03-19T17:41:27;15.70;99.90
851;DHT22;412;51.400;7.480;2023-03-19T17:43:56;15.70;99.90
851;DHT22;412;51.400;7.480;2023-03-19T17:46:25;15.60;99.90
851;DHT22;412;51.400;7.480;2023-03-19T17:48:52;15.60;99.90
851;DHT22;412;51.400;7.480;2023-03-19T17:51:18;15.50;99.90
851;DHT22;412;51.400;7.480;2023-03-19T17:53:47;15.50;99.90
851;DHT22;412;51.400;7.480;2023-03-19T17:56:18;15.50;99.90
851;DHT22;412;51.400;7.480;2023-03-19T17:58:44;15.50;99.90
851;DHT22;412;51.400;7.480;2023-03-19T18:01:28;15.50;99.90
851;DHT22;412;51.400;7.480;2023-03-19T18:03:56;15.50;99.90
851;DHT22;412;51.400;7.480;2023-03-19T18:06:24;15.50;99.90
851;DHT22;412;51.400;7.480;2023-03-19T18:08:50;15.40;99.90
851;DHT22;412;51.400;7.480;2023-03-19T18:11:16;15.40;99.90
851;DHT22;412;51.400;7.480;2023-03-19T18:13:42;15.40;99.90
851;DHT22;412;51.400;7.480;2023-03-19T18:18:52;15.40;99.90
851;DHT22;412;51.400;7.480;2023-03-19T18:21:18;15.50;99.90
851;DHT22;412;51.400;7.480;2023-03-19T18:23:44;15.50;99.90
851;DHT22;412;51.400;7.480;2023-03-19T18:26:11;15.50;99.90
851;DHT22;412;51.400;7.480;2023-03-19T18:28:37;15.40;99.90
851;DHT22;412;51.400;7.480;2023-03-19T18:31:04;15.40;99.90
851;DHT22;412;51.400;7.480;2023-03-19T18:33:35;15.40;99.90
851;DHT22;412;51.400;7.480;2023-03-19T18:36:01;15.50;99.90
851;DHT22;412;51.400;7.480;2023-03-19T18:38:27;15.40;99.90
851;DHT22;412;51.400;7.480;2023-03-19T18:40:53;15.40;99.90
851;DHT22;412;51.400;7.480;2023-03-19T18:43:19;15.40;99.90
851;DHT22;412;51.400;7.480;2023-03-19T18:45:48;15.40;99.90
851;DHT22;412;51.400;7.480;2023-03-19T18:48:21;15.30;99.90
851;DHT22;412;51.400;7.480;2023-03-19T18:50:48;15.30;99.90
851;DHT22;412;51.400;7.480;2023-03-19T18:53:14;15.30;99.90
851;DHT22;412;51.400;7.480;2023-03-19T18:55:40;15.20;99.90
851;DHT22;412;51.400;7.480;2023-03-19T18:58:10;15.20;99.90
851;DHT22;412;51.400;7.480;2023-03-19T19:00:40;15.20;99.90
851;DHT22;412;51.400;7.480;2023-03-19T19:03:06;15.20;99.90
851;DHT22;412;51.400;7.480;2023-03-19T19:05:32;15.20;99.90